createdAt,value
2023-05-16T00:00:55.526Z,102093.03
2023-05-16T00:03:22.205Z,102105.88
2023-05-16T00:05:48.675Z,102103.34
2023-05-16T00:08:15.234Z,102105.88
2023-05-16T00:10:41.721Z,102109.34
2023-05-16T00:13:08.214Z,102112.75
2023-05-16T00:15:34.869Z,102117.91
2023-05-16T00:18:01.705Z,102111.94
2023-05-16T00:20:28.863Z,102117.91
2023-05-16T00:22:55.962Z,102118.78
2023-05-16T00:25:23.182Z,102117.13
2023-05-16T00:27:49.791Z,102114.59
2023-05-16T00:30:16.338Z,102111.22
2023-05-16T00:32:43.214Z,102112.09
2023-05-16T00:35:11.473Z,102112.06
2023-05-16T00:37:38.713Z,102114.66
2023-05-16T00:40:05.880Z,102117.22
2023-05-16T00:42:32.457Z,102114.69
2023-05-16T00:44:59.026Z,102118.94
2023-05-16T00:47:25.716Z,102118.09
2023-05-16T00:49:52.564Z,102114.72
2023-05-16T00:52:19.054Z,102114.72
2023-05-16T00:54:45.665Z,102119.00
2023-05-16T00:57:16.269Z,102121.56
2023-05-16T00:59:44.586Z,102123.28
2023-05-16T01:02:11.223Z,102119.03
2023-05-16T01:04:37.742Z,102122.44
2023-05-16T01:07:04.400Z,102125.84
2023-05-16T01:09:31.640Z,102118.19
2023-05-16T01:12:11.114Z,102117.31
2023-05-16T01:14:56.415Z,102126.69
2023-05-16T01:17:59.679Z,102127.56
2023-05-16T01:20:26.093Z,102125.00
2023-05-16T01:23:05.451Z,102122.44
2023-05-16T01:26:05.695Z,102134.38
2023-05-16T01:28:32.435Z,102131.81
2023-05-16T01:30:58.974Z,102131.78
2023-05-16T01:33:25.576Z,102132.66
2023-05-16T01:36:04.033Z,102130.97
2023-05-16T01:38:44.637Z,102131.78
2023-05-16T01:41:29.569Z,102126.69
2023-05-16T01:44:05.034Z,102132.63
2023-05-16T01:46:37.348Z,102128.38
2023-05-16T01:49:25.188Z,102136.88
2023-05-16T01:51:56.014Z,102135.19
2023-05-16T01:54:26.440Z,102138.59
2023-05-16T01:56:55.337Z,102135.16
2023-05-16T01:59:24.120Z,102139.41
2023-05-16T02:01:53.954Z,102141.97
2023-05-16T02:04:20.660Z,102136.84
2023-05-16T02:06:47.290Z,102143.66
2023-05-16T02:09:13.771Z,102143.63
2023-05-16T02:11:40.186Z,102148.75
2023-05-16T02:14:06.610Z,102155.56
2023-05-16T02:16:34.067Z,102154.72
2023-05-16T02:19:00.881Z,102158.09
2023-05-16T02:21:27.345Z,102151.28
2023-05-16T02:23:53.843Z,102162.34
2023-05-16T02:26:20.721Z,102158.06
2023-05-16T02:28:49.437Z,102153.81
2023-05-16T02:31:29.352Z,102159.78
2023-05-16T02:33:57.282Z,102161.47
2023-05-16T02:36:24.130Z,102159.75
2023-05-16T02:38:50.712Z,102158.06
2023-05-16T02:41:17.161Z,102160.59
2023-05-16T02:43:46.824Z,102167.41
2023-05-16T02:46:25.822Z,102164.88
2023-05-16T02:48:52.503Z,102166.53
2023-05-16T02:51:22.026Z,102169.97
2023-05-16T02:53:49.046Z,102164.00
2023-05-16T02:56:15.530Z,102172.50
2023-05-16T02:58:42.536Z,102169.94
2023-05-16T03:01:09.846Z,102174.19
2023-05-16T03:03:37.538Z,102164.84
2023-05-16T03:06:04.142Z,102176.75
2023-05-16T03:08:30.848Z,102175.03
2023-05-16T03:10:57.223Z,102178.44
2023-05-16T03:13:23.972Z,102175.00
2023-05-16T03:15:50.774Z,102177.56
2023-05-16T03:18:17.442Z,102177.50
2023-05-16T03:20:43.923Z,102181.78
2023-05-16T03:23:10.571Z,102191.09
2023-05-16T03:25:37.650Z,102191.09
2023-05-16T03:28:06.950Z,102185.97
2023-05-16T03:30:34.323Z,102189.34
2023-05-16T03:33:01.090Z,102197.84
2023-05-16T03:35:34.729Z,102196.16
2023-05-16T03:38:01.484Z,102191.88
2023-05-16T03:40:27.990Z,102191.84
2023-05-16T03:42:54.397Z,102201.16
2023-05-16T03:45:20.971Z,102195.22
2023-05-16T03:47:49.338Z,102201.16
2023-05-16T03:50:16.495Z,102201.16
2023-05-16T03:52:43.384Z,102201.97
2023-05-16T03:55:10.442Z,102204.53
2023-05-16T03:57:40.888Z,102218.94
2023-05-16T04:00:08.643Z,102218.09
2023-05-16T04:02:35.363Z,102212.16
2023-05-16T04:05:01.894Z,102208.75
2023-05-16T04:07:28.358Z,102213.00
2023-05-16T04:09:55.776Z,102215.50
2023-05-16T04:12:23.085Z,102218.91
2023-05-16T04:14:49.518Z,102218.88
2023-05-16T04:17:16.168Z,102218.03
2023-05-16T04:19:42.724Z,102215.50
2023-05-16T04:22:09.367Z,102219.75
2023-05-16T04:24:35.797Z,102220.63
2023-05-16T04:27:02.338Z,102220.63
2023-05-16T04:29:29.166Z,102226.56
2023-05-16T04:31:55.794Z,102230.00
2023-05-16T04:34:23.230Z,102234.25
2023-05-16T04:36:49.697Z,102235.97
2023-05-16T04:39:16.240Z,102233.44
2023-05-16T04:41:42.637Z,102230.06
2023-05-16T04:44:11.092Z,102237.72
2023-05-16T04:46:37.672Z,102237.75
2023-05-16T04:49:04.618Z,102241.16
2023-05-16T04:51:32.603Z,102248.84
2023-05-16T04:53:59.145Z,102243.75
2023-05-16T04:56:26.785Z,102250.59
2023-05-16T04:58:54.590Z,102254.88
2023-05-16T05:01:21.430Z,102246.38
2023-05-16T05:03:48.507Z,102252.38
2023-05-16T05:06:15.065Z,102254.09
2023-05-16T05:08:41.732Z,102250.69
2023-05-16T05:11:08.225Z,102253.28
2023-05-16T05:13:34.621Z,102256.72
2023-05-16T05:16:02.045Z,102259.31
2023-05-16T05:18:28.767Z,102254.22
2023-05-16T05:20:55.287Z,102255.09
2023-05-16T05:23:21.929Z,102255.97
2023-05-16T05:25:48.523Z,102256.88
2023-05-16T05:28:15.040Z,102260.31
2023-05-16T05:30:43.217Z,102264.59
2023-05-16T05:33:11.763Z,102269.69
2023-05-16T05:35:38.373Z,102275.69
2023-05-16T05:38:04.822Z,102273.97
2023-05-16T05:40:31.265Z,102280.78
2023-05-16T05:42:57.715Z,102280.78
2023-05-16T05:45:24.077Z,102273.97
2023-05-16T05:47:51.085Z,102273.97
2023-05-16T05:50:17.724Z,102273.13
2023-05-16T05:52:44.354Z,102284.19
2023-05-16T05:55:11.130Z,102276.53
2023-05-16T05:57:37.768Z,102285.03
2023-05-16T06:00:05.323Z,102286.72
2023-05-16T06:02:31.938Z,102282.47
2023-05-16T06:04:58.460Z,102282.44
2023-05-16T06:07:24.929Z,102288.38
2023-05-16T06:09:52.091Z,102287.53
2023-05-16T06:12:18.472Z,102292.59
2023-05-16T06:14:46.054Z,102298.56
2023-05-16T06:17:12.606Z,102298.53
2023-05-16T06:19:39.274Z,102296.81
2023-05-16T06:22:05.839Z,102300.22
2023-05-16T06:24:32.311Z,102303.56
2023-05-16T06:26:58.714Z,102317.22
2023-05-16T06:29:25.434Z,102310.38
2023-05-16T06:31:52.155Z,102313.78
2023-05-16T06:34:18.981Z,102320.59
2023-05-16T06:36:45.508Z,102315.44
2023-05-16T06:39:12.037Z,102299.16
2023-05-16T06:41:38.515Z,102315.34
2023-05-16T06:44:05.159Z,102309.38
2023-05-16T06:46:32.720Z,102304.16
2023-05-16T06:48:59.473Z,102305.84
2023-05-16T06:51:25.957Z,102316.16
2023-05-16T06:53:52.429Z,102305.09
2023-05-16T06:56:18.956Z,102314.47
2023-05-16T06:58:45.900Z,102315.31
2023-05-16T07:01:12.478Z,102312.72
2023-05-16T07:03:39.332Z,102314.41
2023-05-16T07:06:06.002Z,102320.34
2023-05-16T07:08:33.075Z,102314.34
2023-05-16T07:10:59.509Z,102320.34
2023-05-16T07:13:26.076Z,102319.50
2023-05-16T07:15:52.690Z,102321.25
2023-05-16T07:18:19.299Z,102319.47
2023-05-16T07:20:46.100Z,102321.94
2023-05-16T07:23:12.547Z,102320.09
2023-05-16T07:25:39.111Z,102320.97
2023-05-16T07:28:05.750Z,102323.56
2023-05-16T07:30:32.392Z,102327.78
2023-05-16T07:33:01.822Z,102335.31
2023-05-16T07:35:28.550Z,102323.22
2023-05-16T07:37:55.460Z,102317.97
2023-05-16T07:40:25.848Z,102316.03
2023-05-16T07:42:52.365Z,102327.03
2023-05-16T07:45:19.204Z,102321.97
2023-05-16T07:47:46.353Z,102315.06
2023-05-16T07:50:12.958Z,102312.56
2023-05-16T07:52:39.467Z,102308.19
2023-05-16T07:55:06.456Z,102325.16
2023-05-16T07:57:33.047Z,102317.13
2023-05-16T07:59:59.650Z,102324.66
2023-05-16T08:02:30.567Z,102330.00
2023-05-16T08:05:00.383Z,102336.25
2023-05-16T08:07:26.996Z,102347.53
2023-05-16T08:09:53.692Z,102332.31
2023-05-16T08:12:20.333Z,102333.31
2023-05-16T08:14:47.119Z,102348.84
2023-05-16T08:17:16.439Z,102336.13
2023-05-16T08:19:43.177Z,102343.63
2023-05-16T08:22:09.962Z,102338.19
2023-05-16T08:24:36.512Z,102337.97
2023-05-16T08:27:02.995Z,102335.09
2023-05-16T08:29:30.229Z,102329.66
2023-05-16T08:31:56.804Z,102323.22
2023-05-16T08:34:23.463Z,102329.69
2023-05-16T08:36:50.076Z,102334.53
2023-05-16T08:39:16.755Z,102331.28
2023-05-16T08:41:43.666Z,102326.41
2023-05-16T08:44:12.457Z,102332.03
2023-05-16T08:46:41.524Z,102325.41
2023-05-16T08:49:09.247Z,102330.13
2023-05-16T08:51:37.694Z,102319.38
2023-05-16T08:54:09.181Z,102320.84
2023-05-16T08:56:37.038Z,102320.72
2023-05-16T08:59:04.616Z,102329.16
2023-05-16T09:01:34.444Z,102323.81
2023-05-16T09:04:01.467Z,102328.09
2023-05-16T09:06:28.171Z,102327.69
2023-05-16T09:08:55.338Z,102332.31
2023-05-16T09:11:22.036Z,102330.16
2023-05-16T09:13:51.273Z,102346.00
2023-05-16T09:16:19.584Z,102342.72
2023-05-16T09:19:01.884Z,102346.47
2023-05-16T09:21:31.854Z,102337.75
2023-05-16T09:24:08.640Z,102338.16
2023-05-16T09:26:37.299Z,102336.03
2023-05-16T09:29:12.312Z,102341.34
2023-05-16T09:31:39.085Z,102339.31
2023-05-16T09:34:11.124Z,102332.75
2023-05-16T09:36:37.700Z,102326.28
2023-05-16T09:39:08.666Z,102335.31
2023-05-16T09:41:36.434Z,102330.75
2023-05-16T09:44:06.922Z,102333.72
2023-05-16T09:46:38.116Z,102338.34
2023-05-16T09:49:05.004Z,102344.94
2023-05-16T09:51:32.143Z,102346.56
2023-05-16T09:53:59.023Z,102359.19
2023-05-16T09:56:25.434Z,102352.31
2023-05-16T09:58:52.548Z,102340.75
2023-05-16T10:01:19.581Z,102336.88
2023-05-16T10:03:46.241Z,102330.41
2023-05-16T10:06:16.583Z,102321.56
2023-05-16T10:08:43.873Z,102344.03
2023-05-16T10:11:11.754Z,102344.66
2023-05-16T10:13:42.554Z,102337.81
2023-05-16T10:16:12.507Z,102342.19
2023-05-16T10:18:41.341Z,102346.03
2023-05-16T10:21:15.665Z,102343.16
2023-05-16T10:23:43.929Z,102345.19
2023-05-16T10:26:14.850Z,102342.88
2023-05-16T10:28:42.016Z,102349.19
2023-05-16T10:31:11.069Z,102345.19
2023-05-16T10:33:38.849Z,102350.44
2023-05-16T10:36:06.009Z,102351.25
2023-05-16T10:38:34.560Z,102350.91
2023-05-16T10:41:01.915Z,102335.25
2023-05-16T10:43:31.006Z,102352.22
2023-05-16T10:45:59.884Z,102342.28
2023-05-16T10:48:31.662Z,102344.03
2023-05-16T10:50:58.265Z,102349.50
2023-05-16T10:53:33.006Z,102345.63
2023-05-16T10:55:59.407Z,102346.13
2023-05-16T10:58:35.709Z,102337.38
2023-05-16T11:01:27.128Z,102332.69
2023-05-16T11:03:57.320Z,102341.00
2023-05-16T11:06:25.572Z,102317.63
2023-05-16T11:09:05.850Z,102337.06
2023-05-16T11:11:53.610Z,102339.25
2023-05-16T11:14:29.018Z,102341.97
2023-05-16T11:17:15.404Z,102340.06
2023-05-16T11:20:00.910Z,102337.44
2023-05-16T11:22:32.822Z,102340.06
2023-05-16T11:24:59.290Z,102346.22
2023-05-16T11:27:31.177Z,102342.72
2023-05-16T11:30:06.609Z,102356.22
2023-05-16T11:32:41.435Z,102351.28
2023-05-16T11:35:14.321Z,102358.59
2023-05-16T11:37:42.864Z,102357.41
2023-05-16T11:40:12.218Z,102363.00
2023-05-16T11:42:50.430Z,102363.00
2023-05-16T11:45:19.253Z,102366.16
2023-05-16T11:47:50.613Z,102371.53
2023-05-16T11:50:26.821Z,102365.75
2023-05-16T11:52:56.722Z,102364.38
2023-05-16T11:55:41.180Z,102367.59
2023-05-16T11:58:09.478Z,102374.69
2023-05-16T12:00:36.332Z,102369.53
2023-05-16T12:03:05.916Z,102371.94
2023-05-16T12:05:34.577Z,102376.81
2023-05-16T12:08:02.826Z,102367.84
2023-05-16T12:10:31.838Z,102365.00
2023-05-16T12:12:58.671Z,102377.75
2023-05-16T12:15:25.698Z,102382.22
2023-05-16T12:17:52.801Z,102359.56
2023-05-16T12:20:19.739Z,102367.91
2023-05-16T12:22:46.680Z,102364.41
2023-05-16T12:25:23.127Z,102363.97
2023-05-16T12:27:49.976Z,102376.09
2023-05-16T12:30:21.580Z,102364.66
2023-05-16T12:32:53.393Z,102370.38
2023-05-16T12:35:20.060Z,102374.44
2023-05-16T12:37:46.674Z,102375.09
2023-05-16T12:40:13.438Z,102371.69
2023-05-16T12:42:39.941Z,102376.91
2023-05-16T12:45:16.047Z,102370.16
2023-05-16T12:47:43.000Z,102369.97
2023-05-16T12:50:14.496Z,102369.19
2023-05-16T12:52:52.579Z,102359.56
2023-05-16T12:55:21.037Z,102375.63
2023-05-16T12:57:48.787Z,102363.88
2023-05-16T13:00:21.065Z,102370.34
2023-05-16T13:02:48.770Z,102375.66
2023-05-16T13:05:15.903Z,102390.28
2023-05-16T13:07:42.674Z,102392.50
2023-05-16T13:10:13.338Z,102386.06
2023-05-16T13:12:41.688Z,102387.00
2023-05-16T13:15:09.678Z,102391.88
2023-05-16T13:17:37.356Z,102386.25
2023-05-16T13:20:08.991Z,102379.84
2023-05-16T13:22:45.118Z,102385.69
2023-05-16T13:25:12.137Z,102379.19
2023-05-16T13:27:38.709Z,102384.75
2023-05-16T13:30:05.785Z,102385.19
2023-05-16T13:32:32.400Z,102387.19
2023-05-16T13:34:59.098Z,102388.19
2023-05-16T13:37:25.788Z,102386.72
2023-05-16T13:39:54.801Z,102389.41
2023-05-16T13:42:21.662Z,102389.41
2023-05-16T13:44:48.390Z,102395.41
2023-05-16T13:47:14.911Z,102383.88
2023-05-16T13:49:41.471Z,102382.03
2023-05-16T13:52:08.596Z,102376.88
2023-05-16T13:54:35.246Z,102379.56
2023-05-16T13:57:03.430Z,102377.88
2023-05-16T13:59:52.588Z,102378.25
2023-05-16T14:02:16.862Z,102385.47
2023-05-16T14:04:43.432Z,102387.47
2023-05-16T14:07:10.003Z,102374.72
2023-05-16T14:09:39.518Z,102385.19
2023-05-16T14:12:07.483Z,102381.09
2023-05-16T14:14:37.442Z,102390.66
2023-05-16T14:17:04.317Z,102388.31
2023-05-16T14:19:31.622Z,102392.78
2023-05-16T14:21:58.407Z,102390.06
2023-05-16T14:24:25.147Z,102394.31
2023-05-16T14:26:58.159Z,102389.69
2023-05-16T14:29:25.675Z,102393.03
2023-05-16T14:31:52.809Z,102386.19
2023-05-16T14:34:19.505Z,102386.00
2023-05-16T14:36:49.050Z,102390.63
2023-05-16T14:39:15.702Z,102380.63
2023-05-16T14:41:42.195Z,102385.72
2023-05-16T14:44:08.759Z,102385.06
2023-05-16T14:46:35.488Z,102386.34
2023-05-16T14:49:02.294Z,102385.84
2023-05-16T14:51:28.846Z,102388.06
2023-05-16T14:53:55.512Z,102389.00
2023-05-16T14:56:22.730Z,102389.22
2023-05-16T14:58:49.356Z,102390.09
2023-05-16T15:01:16.684Z,102386.50
2023-05-16T15:03:54.410Z,102392.75
2023-05-16T15:06:23.491Z,102392.16
2023-05-16T15:08:50.833Z,102394.16
2023-05-16T15:11:17.450Z,102394.16
2023-05-16T15:13:43.957Z,102391.50
2023-05-16T15:16:10.726Z,102383.66
2023-05-16T15:18:37.537Z,102381.69
2023-05-16T15:21:04.354Z,102383.34
2023-05-16T15:23:30.958Z,102401.38
2023-05-16T15:25:57.656Z,102404.66
2023-05-16T15:28:24.415Z,102397.66
2023-05-16T15:30:51.560Z,102403.72
2023-05-16T15:33:18.149Z,102397.81
2023-05-16T15:35:44.830Z,102397.25
2023-05-16T15:38:11.672Z,102403.34
2023-05-16T15:40:38.240Z,102404.09
2023-05-16T15:43:04.817Z,102402.25
2023-05-16T15:45:32.578Z,102408.19
2023-05-16T15:47:59.439Z,102400.69
2023-05-16T15:50:26.486Z,102412.88
2023-05-16T15:52:53.181Z,102415.59
2023-05-16T15:55:19.907Z,102414.09
2023-05-16T15:57:46.508Z,102418.53
2023-05-16T16:00:13.722Z,102415.25
2023-05-16T16:02:41.466Z,102418.94
2023-05-16T16:05:08.510Z,102424.25
2023-05-16T16:07:35.080Z,102429.38
2023-05-16T16:10:02.025Z,102427.66
2023-05-16T16:12:31.898Z,102428.00
2023-05-16T16:14:58.524Z,102432.41
2023-05-16T16:17:25.081Z,102429.97
2023-05-16T16:19:51.839Z,102431.72
2023-05-16T16:22:19.761Z,102430.19
2023-05-16T16:24:47.578Z,102429.38
2023-05-16T16:27:14.190Z,102437.19
2023-05-16T16:29:40.783Z,102445.88
2023-05-16T16:32:07.775Z,102433.16
2023-05-16T16:34:34.350Z,102448.78
2023-05-16T16:37:00.912Z,102446.63
2023-05-16T16:39:28.934Z,102440.03
2023-05-16T16:41:56.816Z,102442.69
2023-05-16T16:44:23.376Z,102443.63
2023-05-16T16:46:50.045Z,102439.38
2023-05-16T16:49:16.603Z,102447.88
2023-05-16T16:51:43.231Z,102441.72
2023-05-16T16:54:19.128Z,102447.31
2023-05-16T16:56:47.519Z,102445.13
2023-05-16T16:59:16.260Z,102445.25
2023-05-16T17:01:42.866Z,102448.00
2023-05-16T17:04:09.431Z,102445.59
2023-05-16T17:06:35.982Z,102445.84
2023-05-16T17:09:05.019Z,102444.34
2023-05-16T17:11:31.924Z,102450.59
2023-05-16T17:13:59.727Z,102449.94
2023-05-16T17:16:28.735Z,102450.16
2023-05-16T17:18:56.240Z,102452.84
2023-05-16T17:21:22.830Z,102449.56
2023-05-16T17:23:52.228Z,102449.63
2023-05-16T17:26:18.834Z,102455.66
2023-05-16T17:28:48.921Z,102466.81
2023-05-16T17:31:15.890Z,102470.19
2023-05-16T17:33:42.481Z,102471.88
2023-05-16T17:36:09.028Z,102477.91
2023-05-16T17:38:35.592Z,102468.59
2023-05-16T17:41:02.736Z,102472.09
2023-05-16T17:43:30.928Z,102475.56
2023-05-16T17:45:57.760Z,102479.81
2023-05-16T17:48:24.553Z,102473.00
2023-05-16T17:50:51.383Z,102478.13
2023-05-16T17:53:18.017Z,102475.50
2023-05-16T17:55:44.643Z,102474.69
2023-05-16T17:58:11.181Z,102472.09
2023-05-16T18:00:38.487Z,102485.81
2023-05-16T18:03:06.362Z,102483.09
2023-05-16T18:05:33.178Z,102490.78
2023-05-16T18:07:59.792Z,102492.38
2023-05-16T18:10:29.619Z,102500.00
2023-05-16T18:13:03.276Z,102500.84
2023-05-16T18:15:29.924Z,102507.78
2023-05-16T18:17:56.847Z,102500.13
2023-05-16T18:20:23.479Z,102514.81
2023-05-16T18:22:52.073Z,102509.88
2023-05-16T18:25:18.705Z,102514.25
2023-05-16T18:27:45.344Z,102510.91
2023-05-16T18:30:13.391Z,102520.28
2023-05-16T18:32:40.157Z,102519.53
2023-05-16T18:35:07.093Z,102517.06
2023-05-16T18:37:33.897Z,102516.19
2023-05-16T18:40:00.515Z,102521.41
2023-05-16T18:42:27.328Z,102524.03
2023-05-16T18:44:53.909Z,102514.69
2023-05-16T18:47:21.020Z,102523.31
2023-05-16T18:49:47.877Z,102526.78
2023-05-16T18:52:14.541Z,102525.91
2023-05-16T18:54:41.310Z,102521.63
2023-05-16T18:57:08.061Z,102525.88
2023-05-16T18:59:36.099Z,102525.06
2023-05-16T19:02:02.691Z,102525.19
2023-05-16T19:04:29.439Z,102528.66
2023-05-16T19:06:57.974Z,102532.97
2023-05-16T19:09:25.239Z,102540.78
2023-05-16T19:11:51.709Z,102537.44
2023-05-16T19:14:18.336Z,102538.34
2023-05-16T19:16:44.802Z,102540.09
2023-05-16T19:19:11.490Z,102555.50
2023-05-16T19:21:39.150Z,102559.81
2023-05-16T19:24:06.145Z,102556.44
2023-05-16T19:26:32.714Z,102563.34
2023-05-16T19:29:00.339Z,102568.53
2023-05-16T19:31:27.077Z,102561.72
2023-05-16T19:33:53.586Z,102569.41
2023-05-16T19:36:20.157Z,102566.91
2023-05-16T19:38:46.807Z,102569.53
2023-05-16T19:41:13.458Z,102571.28
2023-05-16T19:43:39.963Z,102573.00
2023-05-16T19:46:06.464Z,102575.59
2023-05-16T19:48:33.600Z,102584.16
2023-05-16T19:51:00.221Z,102583.34
2023-05-16T19:53:26.797Z,102581.63
2023-05-16T19:55:53.452Z,102578.25
2023-05-16T19:58:20.136Z,102584.25
2023-05-16T20:00:47.163Z,102582.53
2023-05-16T20:03:14.129Z,102585.09
2023-05-16T20:05:40.913Z,102575.72
2023-05-16T20:08:07.724Z,102580.88
2023-05-16T20:10:35.312Z,102579.16
2023-05-16T20:13:01.858Z,102584.31
2023-05-16T20:15:28.572Z,102580.88
2023-05-16T20:17:55.408Z,102582.59
2023-05-16T20:20:22.209Z,102589.44
2023-05-16T20:22:48.761Z,102580.91
2023-05-16T20:25:15.366Z,102581.75
2023-05-16T20:27:41.963Z,102586.88
2023-05-16T20:30:09.017Z,102591.16
2023-05-16T20:32:36.120Z,102587.72
2023-05-16T20:35:04.308Z,102585.19
2023-05-16T20:37:30.885Z,102587.75
2023-05-16T20:39:57.442Z,102603.13
2023-05-16T20:42:23.976Z,102600.56
2023-05-16T20:44:50.713Z,102600.56
2023-05-16T20:47:17.721Z,102601.38
2023-05-16T20:49:44.562Z,102600.50
2023-05-16T20:52:11.125Z,102609.94
2023-05-16T20:54:37.751Z,102608.22
2023-05-16T20:57:04.680Z,102614.19
2023-05-16T20:59:32.303Z,102612.44
2023-05-16T21:01:58.935Z,102611.63
2023-05-16T21:04:25.690Z,102611.59
2023-05-16T21:06:52.473Z,102610.75
2023-05-16T21:09:19.222Z,102617.56
2023-05-16T21:11:45.762Z,102614.16
2023-05-16T21:14:12.414Z,102626.09
2023-05-16T21:16:38.977Z,102613.28
2023-05-16T21:19:05.895Z,102614.97
2023-05-16T21:21:32.724Z,102614.09
2023-05-16T21:23:59.386Z,102619.22
2023-05-16T21:26:26.036Z,102624.34
2023-05-16T21:28:55.642Z,102618.34
2023-05-16T21:31:22.726Z,102626.00
2023-05-16T21:33:51.943Z,102627.72
2023-05-16T21:36:19.716Z,102624.28
2023-05-16T21:38:46.657Z,102632.81
2023-05-16T21:41:13.376Z,102622.56
2023-05-16T21:43:40.328Z,102624.28
2023-05-16T21:46:07.046Z,102629.38
2023-05-16T21:48:34.032Z,102642.13
2023-05-16T21:51:00.730Z,102633.56
2023-05-16T21:53:27.281Z,102641.19
2023-05-16T21:55:53.881Z,102632.69
2023-05-16T21:58:20.633Z,102638.59
2023-05-16T22:00:47.461Z,102646.25
2023-05-16T22:03:14.234Z,102644.53
2023-05-16T22:05:40.809Z,102647.91
2023-05-16T22:08:08.011Z,102652.16
2023-05-16T22:10:34.635Z,102649.53
2023-05-16T22:13:01.236Z,102650.38
2023-05-16T22:15:27.901Z,102648.66
2023-05-16T22:17:54.855Z,102649.47
2023-05-16T22:20:21.593Z,102642.66
2023-05-16T22:22:49.229Z,102641.81
2023-05-16T22:25:15.782Z,102638.38
2023-05-16T22:27:42.588Z,102646.91
2023-05-16T22:30:09.474Z,102640.91
2023-05-16T22:32:36.077Z,102646.84
2023-05-16T22:35:04.936Z,102654.50
2023-05-16T22:37:31.583Z,102651.06
2023-05-16T22:39:58.216Z,102657.00
2023-05-16T22:42:24.866Z,102652.72
2023-05-16T22:44:51.349Z,102662.09
2023-05-16T22:47:17.911Z,102658.66
2023-05-16T22:49:44.490Z,102656.94
2023-05-16T22:52:10.960Z,102666.25
2023-05-16T22:54:37.562Z,102661.16
2023-05-16T22:57:04.132Z,102662.84
2023-05-16T22:59:31.069Z,102668.78
2023-05-16T23:01:57.550Z,102663.69
2023-05-16T23:04:24.228Z,102661.06
2023-05-16T23:06:50.801Z,102661.03
2023-05-16T23:09:17.358Z,102665.31
2023-05-16T23:11:43.853Z,102660.19
2023-05-16T23:14:10.645Z,102658.47
2023-05-16T23:16:37.158Z,102661.03
2023-05-16T23:19:04.224Z,102659.31
2023-05-16T23:21:31.627Z,102662.69
2023-05-16T23:23:58.131Z,102659.31
2023-05-16T23:26:25.379Z,102668.69
2023-05-16T23:28:52.210Z,102661.03
2023-05-16T23:31:18.749Z,102672.91
2023-05-16T23:33:45.392Z,102675.44
2023-05-16T23:36:12.037Z,102675.44
2023-05-16T23:38:38.638Z,102679.69
2023-05-16T23:41:05.301Z,102672.03
2023-05-16T23:43:31.768Z,102667.78
2023-05-16T23:45:58.357Z,102673.72
2023-05-16T23:48:25.189Z,102672.88
2023-05-16T23:50:51.778Z,102669.50
2023-05-16T23:53:18.372Z,102676.28
2023-05-16T23:55:44.909Z,102682.28
2023-05-16T23:58:11.730Z,102688.19
